createdAt,value
2022-08-22T00:00:05.937Z,0.00
2022-08-22T00:01:06.202Z,0.00
2022-08-22T00:02:05.939Z,0.00
2022-08-22T00:02:44.407Z,0.00
2022-08-22T00:02:45.362Z,0.00
2022-08-22T00:03:02.139Z,0.00
2022-08-22T00:03:06.743Z,0.00
2022-08-22T00:03:08.536Z,0.00
2022-08-22T00:03:11.930Z,0.00
2022-08-22T00:03:17.551Z,0.00
2022-08-22T00:04:05.938Z,0.00
2022-08-22T00:05:05.942Z,0.00
2022-08-22T00:06:05.944Z,0.00
2022-08-22T00:07:05.946Z,0.00
2022-08-22T00:08:05.948Z,0.00
2022-08-22T00:09:05.933Z,0.00
2022-08-22T00:10:05.944Z,0.00
2022-08-22T00:11:06.241Z,0.00
2022-08-22T00:12:05.942Z,0.00
2022-08-22T00:13:05.952Z,0.00
2022-08-22T00:14:06.003Z,0.00
2022-08-22T00:15:05.946Z,0.00
2022-08-22T00:16:05.944Z,0.00
2022-08-22T00:17:06.462Z,0.00
2022-08-22T00:18:05.953Z,0.00
2022-08-22T00:19:05.943Z,0.00
2022-08-22T00:20:05.947Z,0.00
2022-08-22T00:21:05.956Z,0.00
2022-08-22T00:22:05.962Z,0.00
2022-08-22T00:23:05.954Z,0.00
2022-08-22T00:24:05.952Z,0.00
2022-08-22T00:25:05.949Z,0.00
2022-08-22T00:26:05.965Z,0.00
2022-08-22T00:27:05.949Z,0.00
2022-08-22T00:28:05.959Z,0.00
2022-08-22T00:29:05.959Z,0.00
2022-08-22T00:30:05.959Z,0.00
2022-08-22T00:31:05.954Z,0.00
2022-08-22T00:32:05.963Z,0.00
2022-08-22T00:33:05.968Z,0.00
2022-08-22T00:34:06.022Z,0.00
2022-08-22T00:35:05.960Z,0.00
2022-08-22T00:36:05.967Z,0.00
2022-08-22T00:37:05.958Z,0.00
2022-08-22T00:38:05.966Z,0.00
2022-08-22T00:39:05.961Z,0.00
2022-08-22T00:40:06.003Z,0.00
2022-08-22T00:41:05.971Z,0.00
2022-08-22T00:42:05.997Z,0.00
2022-08-22T00:43:05.968Z,0.00
2022-08-22T00:44:06.059Z,0.00
2022-08-22T00:45:05.966Z,0.00
2022-08-22T00:46:05.969Z,0.00
2022-08-22T00:47:06.177Z,0.00
2022-08-22T00:48:06.035Z,0.00
2022-08-22T00:49:05.972Z,0.00
2022-08-22T00:50:05.975Z,0.00
2022-08-22T00:51:05.979Z,0.00
2022-08-22T00:52:05.976Z,0.00
2022-08-22T00:53:05.975Z,0.00
2022-08-22T00:54:06.787Z,0.00
2022-08-22T00:55:06.017Z,0.00
2022-08-22T00:56:05.982Z,0.00
2022-08-22T00:57:05.979Z,0.00
2022-08-22T00:58:06.010Z,0.00
2022-08-22T00:59:18.109Z,0.00
2022-08-22T01:00:05.979Z,0.00
2022-08-22T01:01:06.081Z,0.00
2022-08-22T01:02:05.980Z,0.00
2022-08-22T01:03:05.984Z,0.00
2022-08-22T01:04:05.991Z,0.00
2022-08-22T01:05:05.982Z,0.00
2022-08-22T01:06:05.990Z,0.00
2022-08-22T01:07:06.271Z,0.00
2022-08-22T01:08:06.195Z,0.00
2022-08-22T01:09:06.193Z,0.00
2022-08-22T01:10:05.996Z,0.00
2022-08-22T01:12:05.988Z,0.00
2022-08-22T01:13:05.991Z,0.00
2022-08-22T01:14:06.003Z,0.00
2022-08-22T01:15:05.991Z,0.00
2022-08-22T01:16:06.093Z,0.00
2022-08-22T01:17:05.999Z,0.00
2022-08-22T01:18:05.994Z,0.00
2022-08-22T01:19:06.000Z,0.00
2022-08-22T01:20:06.007Z,0.00
2022-08-22T01:21:06.001Z,0.00
2022-08-22T01:23:05.995Z,0.00
2022-08-22T01:24:06.001Z,0.00
2022-08-22T01:25:06.008Z,0.00
2022-08-22T01:26:06.007Z,0.00
2022-08-22T01:27:05.999Z,0.00
2022-08-22T01:28:05.999Z,0.00
2022-08-22T01:29:06.001Z,0.00
2022-08-22T01:30:06.009Z,0.00
2022-08-22T01:31:06.023Z,0.00
2022-08-22T01:32:06.020Z,0.00
2022-08-22T01:33:06.011Z,0.00
2022-08-22T01:34:06.005Z,0.00
2022-08-22T01:35:06.009Z,0.00
2022-08-22T01:36:06.013Z,0.00
2022-08-22T01:37:06.035Z,0.00
2022-08-22T01:38:06.009Z,0.00
2022-08-22T01:39:06.010Z,0.00
2022-08-22T01:40:06.100Z,0.00
2022-08-22T01:41:06.013Z,0.00
2022-08-22T01:42:06.014Z,0.00
2022-08-22T01:43:06.016Z,0.00
2022-08-22T01:44:06.024Z,0.00
2022-08-22T01:45:06.019Z,0.00
2022-08-22T01:46:06.047Z,0.00
2022-08-22T01:47:06.012Z,0.00
2022-08-22T01:48:06.019Z,0.00
2022-08-22T01:49:06.021Z,0.00
2022-08-22T01:50:06.029Z,0.00
2022-08-22T01:51:06.028Z,0.00
2022-08-22T01:52:06.024Z,0.00
2022-08-22T01:53:06.022Z,0.00
2022-08-22T01:54:06.057Z,0.00
2022-08-22T01:55:06.023Z,0.00
2022-08-22T01:56:06.036Z,0.00
2022-08-22T01:57:06.038Z,0.00
2022-08-22T01:58:06.025Z,0.00
2022-08-22T01:59:06.462Z,0.00
2022-08-22T02:01:06.076Z,0.00
2022-08-22T02:02:06.035Z,0.00
2022-08-22T02:03:06.041Z,0.00
2022-08-22T02:04:06.033Z,0.00
2022-08-22T02:05:06.036Z,0.00
2022-08-22T02:06:06.033Z,0.00
2022-08-22T02:07:06.051Z,0.00
2022-08-22T02:08:06.146Z,0.00
2022-08-22T02:09:06.051Z,0.00
2022-08-22T02:10:06.390Z,0.00
2022-08-22T02:11:06.049Z,0.00
2022-08-22T02:12:06.039Z,0.00
2022-08-22T02:13:06.045Z,0.00
2022-08-22T02:14:06.048Z,0.00
2022-08-22T02:15:06.048Z,0.00
2022-08-22T02:16:06.048Z,0.00
2022-08-22T02:17:06.040Z,0.00
2022-08-22T02:18:06.103Z,0.00
2022-08-22T02:19:06.037Z,0.00
2022-08-22T02:20:06.049Z,0.00
2022-08-22T02:21:06.044Z,0.00
2022-08-22T02:22:06.049Z,0.00
2022-08-22T02:23:06.042Z,0.00
2022-08-22T02:24:06.382Z,0.00
2022-08-22T02:25:08.856Z,0.00
2022-08-22T02:26:06.381Z,0.00
2022-08-22T02:27:06.056Z,0.00
2022-08-22T02:28:06.053Z,8.00
2022-08-22T02:29:06.047Z,8.00
2022-08-22T02:30:06.064Z,8.00
2022-08-22T02:31:06.045Z,8.00
2022-08-22T02:32:06.066Z,8.00
2022-08-22T02:33:06.057Z,8.00
2022-08-22T02:34:06.053Z,8.00
2022-08-22T02:35:06.056Z,8.00
2022-08-22T02:36:06.054Z,8.00
2022-08-22T02:37:06.062Z,8.00
2022-08-22T02:38:06.057Z,8.00
2022-08-22T02:39:06.066Z,8.00
2022-08-22T02:40:06.156Z,8.00
2022-08-22T02:41:06.057Z,8.00
2022-08-22T02:42:06.079Z,8.00
2022-08-22T02:43:06.082Z,8.00
2022-08-22T02:44:06.065Z,8.00
2022-08-22T02:45:06.070Z,8.00
2022-08-22T02:46:07.134Z,8.00
2022-08-22T02:47:06.082Z,8.00
2022-08-22T02:48:06.065Z,8.00
2022-08-22T02:49:06.065Z,8.00
2022-08-22T02:50:06.062Z,8.00
2022-08-22T02:51:06.073Z,8.00
2022-08-22T02:52:06.070Z,8.00
2022-08-22T02:53:06.068Z,8.00
2022-08-22T02:54:06.065Z,8.00
2022-08-22T02:55:06.068Z,8.00
2022-08-22T02:56:06.072Z,8.00
2022-08-22T02:57:06.069Z,8.00
2022-08-22T02:58:06.071Z,8.00
2022-08-22T02:59:06.071Z,8.00
2022-08-22T03:00:06.072Z,8.00
2022-08-22T03:01:06.135Z,8.00
2022-08-22T03:02:06.459Z,8.00
2022-08-22T03:03:06.069Z,8.00
2022-08-22T03:04:06.086Z,8.00
2022-08-22T03:05:06.079Z,8.00
2022-08-22T03:06:06.074Z,8.00
2022-08-22T03:07:06.080Z,8.00
2022-08-22T03:08:06.081Z,8.00
2022-08-22T03:09:06.134Z,8.00
2022-08-22T03:10:06.669Z,8.00
2022-08-22T03:11:06.078Z,8.00
2022-08-22T03:12:06.079Z,8.00
2022-08-22T03:13:06.081Z,8.00
2022-08-22T03:14:06.093Z,8.00
2022-08-22T03:15:06.080Z,8.00
2022-08-22T03:16:06.102Z,8.00
2022-08-22T03:17:06.100Z,8.00
2022-08-22T03:18:06.089Z,0.00
2022-08-22T03:19:06.093Z,0.00
2022-08-22T03:20:06.087Z,0.00
2022-08-22T03:21:06.099Z,0.00
2022-08-22T03:22:06.097Z,0.00
2022-08-22T03:23:06.094Z,0.00
2022-08-22T03:24:06.091Z,0.00
2022-08-22T03:25:06.088Z,0.00
2022-08-22T03:26:07.388Z,0.00
2022-08-22T03:27:06.232Z,4.00
2022-08-22T03:28:06.087Z,4.00
2022-08-22T03:29:06.092Z,4.00
2022-08-22T03:30:06.092Z,0.00
2022-08-22T03:31:06.105Z,0.00
2022-08-22T03:32:06.097Z,0.00
2022-08-22T03:33:06.102Z,4.00
2022-08-22T03:34:06.119Z,4.00
2022-08-22T03:35:06.109Z,4.00
2022-08-22T03:36:06.092Z,4.00
2022-08-22T03:37:06.112Z,4.00
2022-08-22T03:38:06.100Z,8.00
2022-08-22T03:39:11.234Z,4.00
2022-08-22T03:40:06.126Z,8.00
2022-08-22T03:41:06.112Z,8.00
2022-08-22T03:42:06.119Z,12.00
2022-08-22T03:43:06.131Z,12.00
2022-08-22T03:44:06.113Z,12.00
2022-08-22T03:45:06.941Z,16.00
2022-08-22T03:46:06.103Z,16.00
2022-08-22T03:47:06.101Z,20.00
2022-08-22T03:48:06.101Z,24.00
2022-08-22T03:49:06.114Z,28.00
2022-08-22T03:50:06.115Z,32.00
2022-08-22T03:51:06.117Z,36.00
2022-08-22T03:52:07.341Z,40.00
2022-08-22T03:53:06.114Z,44.00
2022-08-22T03:54:06.104Z,48.00
2022-08-22T03:55:06.112Z,52.00
2022-08-22T03:56:06.111Z,60.00
2022-08-22T03:57:06.310Z,60.00
2022-08-22T03:58:06.444Z,68.00
2022-08-22T03:59:10.064Z,72.00
2022-08-22T04:00:06.113Z,80.00
2022-08-22T04:01:06.521Z,84.00
2022-08-22T04:02:24.797Z,92.00
2022-08-22T04:03:06.122Z,100.00
2022-08-22T04:04:06.132Z,108.00
2022-08-22T04:05:06.122Z,116.00
2022-08-22T04:06:11.604Z,124.00
2022-08-22T04:07:06.892Z,136.00
2022-08-22T04:08:06.131Z,144.00
2022-08-22T04:09:06.130Z,156.00
2022-08-22T04:10:06.131Z,164.00
2022-08-22T04:11:06.123Z,172.00
2022-08-22T04:12:06.144Z,184.00
2022-08-22T04:13:06.139Z,192.00
2022-08-22T04:14:06.125Z,204.00
2022-08-22T04:15:06.337Z,216.00
2022-08-22T04:16:06.123Z,232.00
2022-08-22T04:17:06.124Z,244.00
2022-08-22T04:18:06.153Z,260.00
2022-08-22T04:19:07.927Z,276.00
2022-08-22T04:20:06.145Z,288.00
2022-08-22T04:21:06.142Z,308.00
2022-08-22T04:22:06.158Z,324.00
2022-08-22T04:23:06.135Z,344.00
2022-08-22T04:24:06.152Z,364.00
2022-08-22T04:25:08.205Z,380.00
2022-08-22T04:26:12.191Z,392.00
2022-08-22T04:27:06.235Z,400.00
2022-08-22T04:28:06.139Z,408.00
2022-08-22T04:29:06.159Z,416.00
2022-08-22T04:30:06.366Z,432.00
2022-08-22T04:31:06.152Z,444.00
2022-08-22T04:32:06.141Z,456.00
2022-08-22T04:33:06.464Z,472.00
2022-08-22T04:34:06.147Z,496.00
2022-08-22T04:35:06.135Z,524.00
2022-08-22T04:36:06.167Z,560.00
2022-08-22T04:37:06.148Z,588.00
2022-08-22T04:38:06.144Z,624.00
2022-08-22T04:39:06.145Z,640.00
2022-08-22T04:40:06.227Z,668.00
2022-08-22T04:41:06.152Z,704.00
2022-08-22T04:42:29.091Z,748.00
2022-08-22T04:43:06.144Z,792.00
2022-08-22T04:44:06.143Z,828.00
2022-08-22T04:45:06.140Z,860.00
2022-08-22T04:46:06.156Z,880.00
2022-08-22T04:47:06.156Z,892.00
2022-08-22T04:48:06.144Z,904.00
2022-08-22T04:49:06.475Z,928.00
2022-08-22T04:50:06.181Z,944.00
2022-08-22T04:51:06.156Z,972.00
2022-08-22T04:52:06.169Z,992.00
2022-08-22T04:53:06.148Z,1028.00
2022-08-22T04:54:06.321Z,1064.00
2022-08-22T04:55:06.148Z,1112.00
2022-08-22T04:56:07.629Z,1156.00
2022-08-22T04:57:06.170Z,1192.00
2022-08-22T04:58:06.526Z,1220.00
2022-08-22T04:59:06.170Z,1244.00
2022-08-22T05:00:06.161Z,1264.00
2022-08-22T05:01:06.165Z,1292.00
2022-08-22T05:02:06.460Z,1320.00
2022-08-22T05:03:06.182Z,1348.00
2022-08-22T05:04:06.162Z,1376.00
2022-08-22T05:05:13.288Z,1404.00
2022-08-22T05:06:06.156Z,1420.00
2022-08-22T05:07:06.160Z,1448.00
2022-08-22T05:08:06.229Z,1480.00
2022-08-22T05:09:06.163Z,1508.00
2022-08-22T05:10:11.637Z,1548.00
2022-08-22T05:11:06.166Z,1588.00
2022-08-22T05:12:06.165Z,1632.00
2022-08-22T05:13:06.166Z,1684.00
2022-08-22T05:14:06.171Z,1736.00
2022-08-22T05:15:06.163Z,1792.00
2022-08-22T05:17:06.178Z,1896.00
2022-08-22T05:18:06.164Z,1944.00
2022-08-22T05:19:06.178Z,1992.00
2022-08-22T05:20:06.174Z,2040.00
2022-08-22T05:21:07.490Z,2084.00
2022-08-22T05:22:06.173Z,2128.00
2022-08-22T05:23:06.189Z,2164.00
2022-08-22T05:24:06.182Z,2204.00
2022-08-22T05:25:06.181Z,2248.00
2022-08-22T05:26:06.187Z,2288.00
2022-08-22T05:27:06.206Z,2320.00
2022-08-22T05:28:06.177Z,2372.00
2022-08-22T05:29:06.189Z,2420.00
2022-08-22T05:30:06.211Z,2464.00
2022-08-22T05:31:06.215Z,2512.00
2022-08-22T05:32:06.190Z,2556.00
2022-08-22T05:33:06.216Z,2592.00
2022-08-22T05:34:06.187Z,2624.00
2022-08-22T05:35:06.189Z,2648.00
2022-08-22T05:36:06.194Z,2668.00
2022-08-22T05:37:08.105Z,2700.00
2022-08-22T05:38:06.219Z,2736.00
2022-08-22T05:39:06.226Z,2788.00
2022-08-22T05:40:06.234Z,2836.00
2022-08-22T05:41:06.210Z,2884.00
2022-08-22T05:42:06.431Z,2920.00
2022-08-22T05:43:06.215Z,2952.00
2022-08-22T05:44:06.565Z,2972.00
2022-08-22T05:45:06.206Z,2996.00
2022-08-22T05:46:06.193Z,3028.00
2022-08-22T05:47:06.218Z,3060.00
2022-08-22T05:48:06.208Z,3084.00
2022-08-22T05:49:06.230Z,3104.00
2022-08-22T05:50:06.210Z,3136.00
2022-08-22T05:51:06.215Z,3160.00
2022-08-22T05:52:06.204Z,3200.00
2022-08-22T05:53:06.241Z,3236.00
2022-08-22T05:54:06.212Z,3276.00
2022-08-22T05:55:06.226Z,3320.00
2022-08-22T05:56:06.219Z,3364.00
2022-08-22T05:57:08.057Z,3400.00
2022-08-22T05:58:06.200Z,3436.00
2022-08-22T05:59:08.502Z,3468.00
2022-08-22T06:00:06.220Z,3500.00
2022-08-22T06:01:06.230Z,3520.00
2022-08-22T06:02:06.299Z,3536.00
2022-08-22T06:03:06.253Z,3560.00
2022-08-22T06:04:06.455Z,3588.00
2022-08-22T06:05:11.320Z,3620.00
2022-08-22T06:06:06.228Z,3652.00
2022-08-22T06:08:06.213Z,3692.00
2022-08-22T06:09:06.249Z,3724.00
2022-08-22T06:10:06.250Z,3756.00
2022-08-22T06:11:06.227Z,3768.00
2022-08-22T06:12:06.421Z,3780.00
2022-08-22T06:13:06.227Z,3816.00
2022-08-22T06:14:06.222Z,3852.00
2022-08-22T06:15:12.102Z,3872.00
2022-08-22T06:16:06.229Z,3892.00
2022-08-22T06:17:06.226Z,3908.00
2022-08-22T06:18:06.241Z,3932.00
2022-08-22T06:19:19.004Z,3964.00
2022-08-22T06:20:06.275Z,3996.00
2022-08-22T06:21:06.248Z,4020.00
2022-08-22T06:22:06.227Z,4040.00
2022-08-22T06:23:06.249Z,4056.00
2022-08-22T06:24:06.236Z,4096.00
2022-08-22T06:25:06.246Z,4124.00
2022-08-22T06:26:06.282Z,4168.00
2022-08-22T06:27:06.234Z,4200.00
2022-08-22T06:28:06.238Z,4236.00
2022-08-22T06:29:06.246Z,4260.00
2022-08-22T06:30:06.238Z,4332.00
2022-08-22T06:31:06.256Z,4404.00
2022-08-22T06:32:06.252Z,4480.00
2022-08-22T06:33:06.249Z,4560.00
2022-08-22T06:34:06.392Z,4648.00
2022-08-22T06:35:06.993Z,4736.00
2022-08-22T06:36:06.260Z,4840.00
2022-08-22T06:37:06.250Z,4920.00
2022-08-22T06:38:06.267Z,5000.00
2022-08-22T06:39:06.255Z,5080.00
2022-08-22T06:40:06.390Z,5164.00
2022-08-22T06:41:06.260Z,5240.00
2022-08-22T06:42:06.274Z,5320.00
2022-08-22T06:43:06.264Z,5404.00
2022-08-22T06:44:06.262Z,5476.00
2022-08-22T06:45:06.316Z,5540.00
2022-08-22T06:46:06.297Z,5600.00
2022-08-22T06:47:06.267Z,5676.00
2022-08-22T06:48:06.845Z,5756.00
2022-08-22T06:49:06.274Z,5828.00
2022-08-22T06:50:06.275Z,5900.00
2022-08-22T06:51:06.285Z,5972.00
2022-08-22T06:52:06.333Z,6040.00
2022-08-22T06:53:06.284Z,6104.00
2022-08-22T06:54:06.293Z,6180.00
2022-08-22T06:55:06.326Z,6260.00
2022-08-22T06:56:06.329Z,6324.00
2022-08-22T06:57:06.285Z,6384.00
2022-08-22T06:58:06.297Z,6444.00
2022-08-22T06:59:06.283Z,6496.00
2022-08-22T07:00:06.302Z,6532.00
2022-08-22T07:01:11.675Z,6568.00
2022-08-22T07:02:06.373Z,6600.00
2022-08-22T07:03:06.483Z,6632.00
2022-08-22T07:04:06.370Z,6688.00
2022-08-22T07:05:06.312Z,6740.00
2022-08-22T07:06:06.316Z,6800.00
2022-08-22T07:07:06.558Z,6852.00
2022-08-22T07:08:06.342Z,6900.00
2022-08-22T07:09:06.809Z,6928.00
2022-08-22T07:10:06.315Z,6928.00
2022-08-22T07:11:06.732Z,6960.00
2022-08-22T07:12:06.337Z,6984.00
2022-08-22T07:13:06.319Z,7008.00
2022-08-22T07:14:06.344Z,7044.00
2022-08-22T07:15:06.355Z,7080.00
2022-08-22T07:16:06.350Z,7156.00
2022-08-22T07:17:06.342Z,7268.00
2022-08-22T07:18:06.325Z,7392.00
2022-08-22T07:19:06.374Z,7536.00
2022-08-22T07:20:06.353Z,7688.00
2022-08-22T07:21:06.345Z,7836.00
2022-08-22T07:22:06.377Z,7984.00
2022-08-22T07:23:06.376Z,8132.00
2022-08-22T07:24:06.398Z,8292.00
2022-08-22T07:25:06.403Z,8468.00
2022-08-22T07:26:06.393Z,8660.00
2022-08-22T07:27:06.404Z,8984.00
2022-08-22T07:28:06.391Z,9508.00
2022-08-22T07:29:10.725Z,10100.00
2022-08-22T07:30:06.415Z,10708.00
2022-08-22T07:31:06.460Z,11272.00
2022-08-22T07:32:06.437Z,11488.00
2022-08-22T07:33:17.739Z,11784.00
2022-08-22T07:34:06.515Z,12336.00
2022-08-22T07:35:06.400Z,12452.00
2022-08-22T07:36:06.404Z,12680.00
2022-08-22T07:37:06.437Z,12800.00
2022-08-22T07:38:06.442Z,12800.00
2022-08-22T07:39:06.414Z,13020.00
2022-08-22T07:40:06.476Z,13284.00
2022-08-22T07:41:06.443Z,13348.00
2022-08-22T07:42:07.094Z,13036.00
2022-08-22T07:43:06.416Z,12768.00
2022-08-22T07:44:06.419Z,12616.00
2022-08-22T07:45:06.477Z,12528.00
2022-08-22T07:46:06.463Z,12792.00
2022-08-22T07:47:06.431Z,12736.00
2022-08-22T07:48:06.489Z,13644.00
2022-08-22T07:49:09.473Z,13852.00
2022-08-22T07:50:06.473Z,13788.00
2022-08-22T07:51:06.440Z,14128.00
2022-08-22T07:52:06.440Z,14316.00
2022-08-22T07:53:06.487Z,14868.00
2022-08-22T07:54:08.417Z,15412.00
2022-08-22T07:55:06.497Z,15688.00
2022-08-22T07:56:06.481Z,15476.00
2022-08-22T07:57:06.916Z,15144.00
2022-08-22T07:58:06.706Z,14632.00
2022-08-22T07:59:12.690Z,14760.00
2022-08-22T08:00:06.475Z,15900.00
2022-08-22T08:01:06.507Z,16256.00
2022-08-22T08:02:06.493Z,15992.00
2022-08-22T08:03:06.532Z,15548.00
2022-08-22T08:04:06.672Z,15076.00
2022-08-22T08:05:06.484Z,14660.00
2022-08-22T08:06:06.561Z,14712.00
2022-08-22T08:07:06.499Z,14968.00
2022-08-22T08:08:06.474Z,15460.00
2022-08-22T08:09:06.533Z,14528.00
2022-08-22T08:10:10.040Z,14460.00
2022-08-22T08:11:06.513Z,15760.00
2022-08-22T08:12:06.554Z,17472.00
2022-08-22T08:13:06.527Z,17728.00
2022-08-22T08:14:06.853Z,17792.00
2022-08-22T08:15:06.546Z,17088.00
2022-08-22T08:16:06.532Z,15620.00
2022-08-22T08:17:06.595Z,14588.00
2022-08-22T08:18:06.875Z,13356.00
2022-08-22T08:19:06.622Z,12888.00
2022-08-22T08:20:06.559Z,12704.00
2022-08-22T08:21:06.597Z,12308.00
2022-08-22T08:22:06.663Z,12104.00
2022-08-22T08:23:06.582Z,11684.00
2022-08-22T08:24:06.645Z,11604.00
2022-08-22T08:25:06.573Z,11884.00
2022-08-22T08:26:06.565Z,12336.00
2022-08-22T08:27:06.571Z,12600.00
2022-08-22T08:28:06.613Z,12720.00
2022-08-22T08:29:06.591Z,12748.00
2022-08-22T08:30:06.580Z,12732.00
2022-08-22T08:31:08.585Z,12788.00
2022-08-22T08:32:07.146Z,12784.00
2022-08-22T08:33:25.763Z,12824.00
2022-08-22T08:34:06.594Z,12820.00
2022-08-22T08:35:06.606Z,12792.00
2022-08-22T08:36:06.608Z,12680.00
2022-08-22T08:37:06.597Z,12572.00
2022-08-22T08:38:06.784Z,12532.00
2022-08-22T08:39:06.635Z,12536.00
2022-08-22T08:40:06.669Z,12500.00
2022-08-22T08:41:07.038Z,12488.00
2022-08-22T08:42:06.650Z,12508.00
2022-08-22T08:43:09.016Z,12524.00
2022-08-22T08:44:06.657Z,12600.00
2022-08-22T08:45:06.707Z,12744.00
2022-08-22T08:46:06.682Z,12888.00
2022-08-22T08:47:06.718Z,12924.00
2022-08-22T08:48:06.793Z,12896.00
2022-08-22T08:49:06.707Z,12800.00
2022-08-22T08:50:06.728Z,12840.00
2022-08-22T08:51:06.739Z,12796.00
2022-08-22T08:52:06.691Z,12956.00
2022-08-22T08:53:06.700Z,13064.00
2022-08-22T08:54:06.712Z,13124.00
2022-08-22T08:56:06.712Z,13584.00
2022-08-22T08:57:06.725Z,13932.00
2022-08-22T08:58:07.289Z,14324.00
2022-08-22T08:59:09.999Z,14388.00
2022-08-22T09:00:06.765Z,14436.00
2022-08-22T09:01:07.266Z,14540.00
2022-08-22T09:02:07.105Z,14496.00
2022-08-22T09:03:06.931Z,14508.00
2022-08-22T09:04:06.782Z,14604.00
2022-08-22T09:05:06.748Z,14648.00
2022-08-22T09:06:06.796Z,14768.00
2022-08-22T09:07:06.841Z,14736.00
2022-08-22T09:08:06.792Z,14832.00
2022-08-22T09:09:06.790Z,14988.00
2022-08-22T09:10:06.875Z,14904.00
2022-08-22T09:11:09.802Z,15140.00
2022-08-22T09:12:06.839Z,15472.00
2022-08-22T09:13:11.343Z,15820.00
2022-08-22T09:14:06.799Z,16228.00
2022-08-22T09:15:11.826Z,16992.00
2022-08-22T09:16:06.860Z,18336.00
2022-08-22T09:17:06.986Z,20192.00
2022-08-22T09:18:06.857Z,21888.00
2022-08-22T09:19:06.838Z,22656.00
2022-08-22T09:20:17.665Z,23552.00
2022-08-22T09:21:06.873Z,24320.00
2022-08-22T09:22:06.865Z,26208.00
2022-08-22T09:23:06.870Z,29184.00
2022-08-22T09:24:06.889Z,30368.00
2022-08-22T09:25:06.935Z,28832.00
2022-08-22T09:26:06.982Z,28608.00
2022-08-22T09:27:08.735Z,28608.00
2022-08-22T09:28:06.917Z,27648.00
2022-08-22T09:29:06.912Z,27680.00
2022-08-22T09:30:06.937Z,28192.00
2022-08-22T09:32:06.944Z,32128.00
2022-08-22T09:33:06.923Z,31328.00
2022-08-22T09:34:07.166Z,30304.00
2022-08-22T09:35:06.966Z,28672.00
2022-08-22T09:36:06.955Z,27360.00
2022-08-22T09:37:06.968Z,26688.00
2022-08-22T09:38:06.972Z,26368.00
2022-08-22T09:39:06.954Z,25984.00
2022-08-22T09:40:08.292Z,26080.00
2022-08-22T09:40:15.634Z,29600.00
2022-08-22T09:41:07.061Z,25408.00
2022-08-22T09:42:08.105Z,24224.00
2022-08-22T09:43:07.009Z,23040.00
2022-08-22T09:44:07.015Z,24000.00
2022-08-22T09:45:07.050Z,26560.00
2022-08-22T09:46:07.024Z,28960.00
2022-08-22T09:47:07.046Z,33760.00
2022-08-22T09:48:09.926Z,38496.00
2022-08-22T09:49:07.080Z,41600.00
2022-08-22T09:50:07.050Z,42976.00
2022-08-22T09:51:31.722Z,40736.00
2022-08-22T09:52:14.439Z,42336.00
2022-08-22T09:53:07.109Z,43776.00
2022-08-22T09:54:07.105Z,46304.00
2022-08-22T09:55:35.230Z,44320.00
2022-08-22T09:56:11.685Z,42048.00
2022-08-22T09:57:07.113Z,46624.00
2022-08-22T09:58:11.412Z,42400.00
2022-08-22T09:59:07.169Z,40544.00
2022-08-22T10:00:07.177Z,39616.00
2022-08-22T10:02:07.188Z,30496.00
2022-08-22T10:03:07.223Z,28576.00
2022-08-22T10:04:07.202Z,25152.00
2022-08-22T10:05:07.268Z,23968.00
2022-08-22T10:06:07.215Z,23648.00
2022-08-22T10:07:11.117Z,24160.00
2022-08-22T10:08:07.242Z,25440.00
2022-08-22T10:09:09.110Z,26272.00
2022-08-22T10:10:07.254Z,27936.00
2022-08-22T10:11:07.292Z,28128.00
2022-08-22T10:12:12.510Z,27424.00
2022-08-22T10:13:10.455Z,27264.00
2022-08-22T10:14:07.322Z,26432.00
2022-08-22T10:15:07.332Z,24928.00
2022-08-22T10:16:07.332Z,23840.00
2022-08-22T10:17:07.405Z,23168.00
2022-08-22T10:18:07.738Z,23424.00
2022-08-22T10:19:07.393Z,23040.00
2022-08-22T10:20:07.386Z,22848.00
2022-08-22T10:21:07.385Z,23072.00
2022-08-22T10:22:07.393Z,24160.00
2022-08-22T10:23:07.785Z,24096.00
2022-08-22T10:24:07.442Z,23040.00
2022-08-22T10:25:07.430Z,23424.00
2022-08-22T10:26:07.432Z,25568.00
2022-08-22T10:27:07.454Z,27232.00
2022-08-22T10:28:07.614Z,26112.00
2022-08-22T10:30:07.501Z,25696.00
2022-08-22T10:31:07.492Z,24576.00
2022-08-22T10:32:10.764Z,25600.00
2022-08-22T10:33:07.534Z,34496.00
2022-08-22T10:34:07.889Z,42240.00
2022-08-22T10:35:08.000Z,30304.00
2022-08-22T10:36:07.562Z,27904.00
2022-08-22T10:37:07.572Z,28640.00
2022-08-22T10:38:07.576Z,39360.00
2022-08-22T10:39:09.561Z,40704.00
2022-08-22T10:40:07.666Z,42176.00
2022-08-22T10:41:09.449Z,39488.00
2022-08-22T10:42:07.669Z,37440.00
2022-08-22T10:43:07.971Z,37088.00
2022-08-22T10:44:07.650Z,35424.00
2022-08-22T10:45:07.706Z,40000.00
2022-08-22T10:46:12.389Z,46656.00
2022-08-22T10:47:07.718Z,48480.00
2022-08-22T10:48:10.036Z,49312.00
2022-08-22T10:49:08.102Z,48960.00
2022-08-22T10:50:08.762Z,48832.00
2022-08-22T10:51:08.891Z,41984.00
2022-08-22T10:52:15.906Z,36864.00
2022-08-22T10:53:07.955Z,34944.00
2022-08-22T10:54:07.780Z,36992.00
2022-08-22T10:55:09.878Z,41376.00
2022-08-22T10:56:07.807Z,46400.00
2022-08-22T10:57:07.830Z,51552.00
2022-08-22T10:58:07.820Z,55200.00
2022-08-22T10:59:07.828Z,58048.00
2022-08-22T11:00:07.937Z,57632.00
2022-08-22T11:01:38.349Z,69024.00
2022-08-22T11:02:08.189Z,78848.00
2022-08-22T11:03:10.660Z,82400.00
2022-08-22T11:04:07.973Z,68128.00
2022-08-22T11:05:07.972Z,49472.00
2022-08-22T11:06:08.022Z,42080.00
2022-08-22T11:07:07.960Z,31136.00
2022-08-22T11:08:07.961Z,32320.00
2022-08-22T11:09:08.062Z,42080.00
2022-08-22T11:10:08.028Z,31680.00
2022-08-22T11:11:08.012Z,32704.00
2022-08-22T11:12:08.066Z,35424.00
2022-08-22T11:13:08.093Z,36800.00
2022-08-22T11:14:08.099Z,41568.00
2022-08-22T11:15:08.095Z,43936.00
2022-08-22T11:16:08.090Z,42400.00
2022-08-22T11:17:28.002Z,39936.00
2022-08-22T11:18:08.252Z,36928.00
2022-08-22T11:19:15.585Z,31136.00
2022-08-22T11:20:08.168Z,28352.00
2022-08-22T11:21:08.188Z,24096.00
2022-08-22T11:22:08.210Z,23200.00
2022-08-22T11:23:08.545Z,26688.00
2022-08-22T11:24:08.215Z,30080.00
2022-08-22T11:25:08.220Z,27072.00
2022-08-22T11:26:08.253Z,27616.00
2022-08-22T11:27:08.278Z,24000.00
2022-08-22T11:28:08.334Z,27072.00
2022-08-22T11:29:13.270Z,26400.00
2022-08-22T11:30:11.103Z,22112.00
2022-08-22T11:31:08.476Z,27712.00
2022-08-22T11:32:08.313Z,39232.00
2022-08-22T11:33:08.435Z,44768.00
2022-08-22T11:34:08.476Z,39392.00
2022-08-22T11:35:08.966Z,40320.00
2022-08-22T11:36:08.421Z,35488.00
2022-08-22T11:37:10.995Z,32288.00
2022-08-22T11:38:08.927Z,30112.00
2022-08-22T11:39:13.706Z,29760.00
2022-08-22T11:40:08.713Z,30464.00
2022-08-22T11:41:08.481Z,27872.00
2022-08-22T11:42:08.501Z,27968.00
2022-08-22T11:43:17.363Z,27712.00
2022-08-22T11:44:08.570Z,31264.00
2022-08-22T11:45:08.535Z,33248.00
2022-08-22T11:46:08.592Z,28448.00
2022-08-22T11:47:08.556Z,23776.00
2022-08-22T11:48:08.690Z,36128.00
2022-08-22T11:49:08.606Z,43968.00
2022-08-22T11:50:13.318Z,30816.00
2022-08-22T11:51:13.140Z,31584.00
2022-08-22T11:52:08.655Z,34720.00
2022-08-22T11:53:08.779Z,31584.00
2022-08-22T11:54:08.653Z,28832.00
2022-08-22T11:55:08.715Z,27648.00
2022-08-22T11:56:08.672Z,29664.00
2022-08-22T11:57:08.719Z,35296.00
2022-08-22T11:58:08.727Z,15552.00
2022-08-22T11:59:08.735Z,14552.00
2022-08-22T12:00:08.726Z,15880.00
2022-08-22T12:01:11.796Z,24704.00
2022-08-22T12:02:08.901Z,23328.00
2022-08-22T12:03:08.782Z,17568.00
2022-08-22T12:04:09.963Z,17408.00
2022-08-22T12:05:08.830Z,17728.00
2022-08-22T12:06:08.841Z,22816.00
2022-08-22T12:07:08.825Z,21280.00
2022-08-22T12:08:09.284Z,21216.00
2022-08-22T12:09:08.910Z,22272.00
2022-08-22T12:10:08.868Z,22944.00
2022-08-22T12:11:08.975Z,22144.00
2022-08-22T12:12:08.964Z,23488.00
2022-08-22T12:13:08.926Z,21664.00
2022-08-22T12:14:09.078Z,20960.00
2022-08-22T12:15:09.311Z,21632.00
2022-08-22T12:16:08.952Z,22080.00
2022-08-22T12:17:09.050Z,22688.00
2022-08-22T12:18:09.030Z,24224.00
2022-08-22T12:19:09.030Z,20832.00
2022-08-22T12:20:17.358Z,20960.00
2022-08-22T12:21:09.219Z,20160.00
2022-08-22T12:22:09.145Z,21952.00